createdAt,value
2023-05-20T00:00:40.844Z,2.60
2023-05-20T00:03:08.114Z,2.30
2023-05-20T00:05:35.233Z,2.37
2023-05-20T00:08:02.360Z,2.40
2023-05-20T00:10:29.456Z,2.50
2023-05-20T00:12:56.529Z,2.50
2023-05-20T00:15:24.998Z,1.93
2023-05-20T00:17:52.207Z,2.30
2023-05-20T00:20:19.459Z,2.23
2023-05-20T00:22:46.569Z,2.23
2023-05-20T00:25:13.863Z,2.27
2023-05-20T00:27:40.987Z,2.20
2023-05-20T00:30:08.701Z,1.90
2023-05-20T00:32:37.231Z,2.87
2023-05-20T00:35:04.717Z,2.17
2023-05-20T00:37:31.907Z,2.20
2023-05-20T00:39:59.020Z,3.40
2023-05-20T00:42:27.163Z,2.90
2023-05-20T00:44:54.697Z,2.60
2023-05-20T00:47:24.303Z,2.40
2023-05-20T00:49:53.075Z,2.53
2023-05-20T00:52:20.427Z,2.13
2023-05-20T00:54:47.679Z,2.30
2023-05-20T00:57:15.820Z,2.63
2023-05-20T00:59:44.762Z,2.13
2023-05-20T01:02:12.126Z,2.43
2023-05-20T01:04:39.325Z,2.07
2023-05-20T01:07:07.920Z,2.47
2023-05-20T01:09:35.059Z,2.50
2023-05-20T01:12:04.690Z,2.50
2023-05-20T01:14:35.994Z,2.27
2023-05-20T01:17:03.505Z,2.23
2023-05-20T01:19:32.197Z,2.63
2023-05-20T01:22:00.694Z,2.37
2023-05-20T01:24:29.148Z,2.13
2023-05-20T01:26:56.223Z,2.53
2023-05-20T01:29:23.423Z,2.60
2023-05-20T01:31:52.569Z,2.83
2023-05-20T01:34:19.796Z,2.13
2023-05-20T01:36:47.433Z,2.13
2023-05-20T01:39:14.767Z,2.40
2023-05-20T01:41:44.380Z,2.20
2023-05-20T01:44:11.754Z,3.13
2023-05-20T01:46:38.952Z,2.10
2023-05-20T01:49:06.118Z,2.40
2023-05-20T01:51:33.320Z,2.70
2023-05-20T01:54:00.499Z,2.63
2023-05-20T01:56:27.775Z,2.70
2023-05-20T01:58:56.265Z,2.40
2023-05-20T02:01:24.604Z,3.37
2023-05-20T02:03:51.784Z,2.60
2023-05-20T02:06:19.082Z,2.50
2023-05-20T02:08:46.246Z,2.57
2023-05-20T02:11:13.341Z,2.90
2023-05-20T02:13:40.498Z,2.70
2023-05-20T02:16:09.072Z,2.47
2023-05-20T02:18:36.174Z,2.70
2023-05-20T02:21:03.356Z,3.03
2023-05-20T02:23:30.666Z,3.63
2023-05-20T02:25:58.977Z,2.97
2023-05-20T02:28:26.203Z,2.53
2023-05-20T02:30:53.253Z,2.60
2023-05-20T02:33:21.819Z,2.50
2023-05-20T02:35:49.110Z,2.60
2023-05-20T02:38:16.441Z,3.50
2023-05-20T02:40:44.956Z,2.37
2023-05-20T02:43:12.061Z,3.00
2023-05-20T02:45:39.233Z,3.13
2023-05-20T02:48:06.878Z,3.40
2023-05-20T02:50:38.676Z,3.30
2023-05-20T02:53:05.825Z,2.63
2023-05-20T02:55:34.761Z,3.30
2023-05-20T02:58:02.184Z,4.17
2023-05-20T03:00:30.232Z,3.93
2023-05-20T03:02:57.409Z,4.17
2023-05-20T03:05:24.660Z,4.17
2023-05-20T03:07:53.102Z,4.03
2023-05-20T03:10:20.314Z,3.80
2023-05-20T03:12:47.413Z,4.07
2023-05-20T03:15:15.603Z,3.43
2023-05-20T03:17:43.770Z,4.33
2023-05-20T03:20:11.448Z,4.00
2023-05-20T03:22:38.593Z,3.70
2023-05-20T03:25:07.756Z,3.90
2023-05-20T03:27:34.877Z,3.97
2023-05-20T03:30:02.583Z,4.13
2023-05-20T03:32:30.278Z,3.67
2023-05-20T03:34:57.433Z,4.50
2023-05-20T03:37:24.545Z,4.00
2023-05-20T03:39:51.763Z,3.63
2023-05-20T03:42:20.279Z,4.07
2023-05-20T03:44:47.441Z,4.00
2023-05-20T03:47:16.307Z,4.33
2023-05-20T03:49:43.516Z,4.27
2023-05-20T03:52:10.615Z,3.43
2023-05-20T03:54:37.712Z,4.23
2023-05-20T03:57:06.062Z,3.70
2023-05-20T03:59:34.600Z,3.93
2023-05-20T04:02:01.816Z,3.80
2023-05-20T04:04:29.130Z,3.60
2023-05-20T04:06:56.337Z,3.37
2023-05-20T04:09:24.222Z,4.17
2023-05-20T04:11:51.309Z,4.13
2023-05-20T04:14:18.434Z,4.07
2023-05-20T04:16:47.135Z,3.30
2023-05-20T04:19:14.748Z,3.40
2023-05-20T04:21:43.399Z,3.40
2023-05-20T04:24:10.690Z,2.87
2023-05-20T04:26:37.826Z,3.30
2023-05-20T04:29:05.022Z,3.10
2023-05-20T04:31:34.024Z,3.80
2023-05-20T04:34:02.552Z,3.40
2023-05-20T04:36:30.990Z,3.67
2023-05-20T04:38:58.819Z,3.13
2023-05-20T04:41:25.965Z,3.00
2023-05-20T04:43:53.094Z,3.13
2023-05-20T04:46:20.452Z,2.87
2023-05-20T04:48:48.321Z,2.97
2023-05-20T04:51:16.819Z,3.33
2023-05-20T04:53:46.040Z,2.97
2023-05-20T04:56:13.439Z,3.00
2023-05-20T04:58:40.675Z,3.30
2023-05-20T05:01:07.816Z,2.70
2023-05-20T05:03:36.723Z,2.93
2023-05-20T05:06:04.598Z,3.20
2023-05-20T05:08:33.053Z,3.17
2023-05-20T05:11:00.480Z,2.80
2023-05-20T05:13:27.691Z,2.47
2023-05-20T05:15:58.891Z,2.90
2023-05-20T05:18:27.283Z,3.63
2023-05-20T05:20:59.520Z,3.43
2023-05-20T05:23:27.072Z,2.83
2023-05-20T05:25:55.756Z,3.30
2023-05-20T05:28:22.893Z,3.40
2023-05-20T05:30:49.988Z,3.23
2023-05-20T05:33:17.294Z,3.20
2023-05-20T05:35:44.653Z,2.70
2023-05-20T05:38:11.741Z,2.67
2023-05-20T05:40:38.827Z,2.87
2023-05-20T05:43:07.320Z,2.90
2023-05-20T05:45:35.530Z,3.20
2023-05-20T05:48:02.722Z,2.70
2023-05-20T05:50:30.451Z,2.77
2023-05-20T05:52:57.581Z,3.10
2023-05-20T05:55:25.283Z,3.53
2023-05-20T05:57:53.065Z,2.77
2023-05-20T06:00:21.530Z,3.60
2023-05-20T06:02:49.730Z,3.23
2023-05-20T06:05:46.208Z,3.40
2023-05-20T06:08:13.469Z,2.90
2023-05-20T06:10:40.701Z,3.10
2023-05-20T06:13:07.777Z,3.43
2023-05-20T06:15:36.528Z,2.73
2023-05-20T06:18:04.016Z,2.80
2023-05-20T06:20:32.178Z,3.30
2023-05-20T06:22:59.490Z,2.80
2023-05-20T06:25:33.826Z,3.03
2023-05-20T06:28:01.713Z,3.50
2023-05-20T06:30:28.932Z,3.40
2023-05-20T06:32:57.427Z,2.93
2023-05-20T06:35:24.559Z,3.10
2023-05-20T06:37:51.868Z,2.90
2023-05-20T06:40:19.106Z,3.23
2023-05-20T06:42:46.235Z,2.80
2023-05-20T06:45:14.093Z,3.30
2023-05-20T06:47:50.305Z,3.47
2023-05-20T06:50:18.934Z,3.83
2023-05-20T06:52:46.203Z,3.50
2023-05-20T06:55:14.039Z,3.33
2023-05-20T06:57:41.131Z,3.27
2023-05-20T07:00:08.851Z,3.40
2023-05-20T07:02:40.232Z,3.73
2023-05-20T07:05:08.650Z,4.03
2023-05-20T07:07:37.777Z,3.20
2023-05-20T07:10:06.198Z,2.83
2023-05-20T07:12:35.565Z,3.20
2023-05-20T07:15:04.277Z,3.40
2023-05-20T07:17:31.858Z,3.13
2023-05-20T07:19:59.076Z,3.77
2023-05-20T07:22:26.531Z,3.87
2023-05-20T07:25:05.042Z,3.10
2023-05-20T07:27:32.163Z,4.00
2023-05-20T07:29:59.357Z,3.13
2023-05-20T07:32:26.716Z,3.50
2023-05-20T07:34:53.882Z,3.40
2023-05-20T07:37:21.041Z,3.13
2023-05-20T07:39:48.231Z,3.23
2023-05-20T07:42:16.690Z,3.27
2023-05-20T07:44:47.342Z,3.10
2023-05-20T07:47:14.550Z,3.17
2023-05-20T07:49:41.767Z,3.10
2023-05-20T07:52:08.937Z,3.43
2023-05-20T07:54:36.614Z,3.47
2023-05-20T07:57:03.778Z,3.40
2023-05-20T07:59:32.779Z,3.30
2023-05-20T08:01:59.894Z,3.73
2023-05-20T08:04:27.758Z,3.20
2023-05-20T08:06:56.154Z,3.03
2023-05-20T08:09:34.844Z,3.60
2023-05-20T08:12:02.011Z,3.47
2023-05-20T08:14:29.178Z,3.80
2023-05-20T08:16:57.652Z,3.30
2023-05-20T08:19:24.984Z,3.50
2023-05-20T08:21:52.135Z,3.20
2023-05-20T08:24:19.253Z,3.20
2023-05-20T08:26:46.353Z,4.00
2023-05-20T08:29:14.504Z,3.63
2023-05-20T08:31:41.703Z,3.27
2023-05-20T08:34:10.162Z,3.60
2023-05-20T08:36:37.335Z,3.33
2023-05-20T08:39:04.829Z,3.63
2023-05-20T08:41:31.996Z,3.57
2023-05-20T08:44:00.416Z,4.03
2023-05-20T08:46:27.809Z,3.63
2023-05-20T08:48:56.722Z,3.70
2023-05-20T08:51:27.407Z,3.70
2023-05-20T08:53:54.728Z,3.80
2023-05-20T08:56:22.349Z,3.80
2023-05-20T08:58:49.418Z,3.90
2023-05-20T09:01:16.519Z,4.03
2023-05-20T09:03:43.587Z,4.23
2023-05-20T09:06:10.695Z,4.30
2023-05-20T09:08:39.369Z,4.57
2023-05-20T09:11:06.465Z,3.70
2023-05-20T09:13:33.749Z,3.70
2023-05-20T09:16:01.425Z,3.87
2023-05-20T09:18:28.752Z,4.17
2023-05-20T09:20:55.798Z,4.10
2023-05-20T09:23:22.914Z,4.03
2023-05-20T09:25:51.520Z,4.23
2023-05-20T09:28:19.668Z,4.60
2023-05-20T09:30:49.558Z,4.03
2023-05-20T09:33:16.724Z,4.30
2023-05-20T09:35:43.793Z,4.03
2023-05-20T09:38:11.711Z,4.57
2023-05-20T09:40:39.158Z,4.50
2023-05-20T09:43:08.078Z,4.37
2023-05-20T09:45:35.857Z,3.57
2023-05-20T09:48:04.244Z,3.97
2023-05-20T09:50:32.257Z,4.20
2023-05-20T09:53:02.771Z,4.73
2023-05-20T09:55:30.376Z,4.30
2023-05-20T09:57:57.444Z,4.47
2023-05-20T10:00:25.868Z,4.57
2023-05-20T10:02:53.424Z,3.83
2023-05-20T10:05:21.659Z,4.70
2023-05-20T10:08:07.382Z,3.90
2023-05-20T10:10:38.861Z,4.07
2023-05-20T10:13:12.005Z,4.60
2023-05-20T10:15:44.820Z,4.50
2023-05-20T10:18:15.647Z,3.90
2023-05-20T10:20:46.442Z,4.77
2023-05-20T10:23:21.137Z,4.13
2023-05-20T10:25:51.078Z,4.43
2023-05-20T10:28:25.494Z,3.70
2023-05-20T10:30:53.983Z,4.40
2023-05-20T10:33:21.086Z,4.53
2023-05-20T10:35:48.565Z,4.80
2023-05-20T10:38:15.628Z,4.60
2023-05-20T10:40:42.716Z,4.73
2023-05-20T10:43:10.210Z,4.63
2023-05-20T10:45:47.706Z,4.70
2023-05-20T10:48:21.996Z,4.93
2023-05-20T10:50:49.477Z,4.30
2023-05-20T10:53:29.283Z,5.13
2023-05-20T10:56:00.326Z,4.27
2023-05-20T10:58:27.422Z,5.37
2023-05-20T11:00:55.371Z,5.30
2023-05-20T11:03:24.785Z,5.20
2023-05-20T11:05:52.257Z,5.23
2023-05-20T11:08:27.840Z,4.77
2023-05-20T11:10:56.950Z,5.10
2023-05-20T11:13:24.174Z,4.93
2023-05-20T11:15:51.410Z,5.73
2023-05-20T11:18:19.075Z,5.27
2023-05-20T11:20:48.330Z,5.13
2023-05-20T11:23:15.944Z,5.47
2023-05-20T11:25:43.243Z,4.60
2023-05-20T11:28:13.071Z,5.33
2023-05-20T11:30:40.286Z,6.40
2023-05-20T11:33:07.425Z,5.67
2023-05-20T11:35:34.551Z,5.13
2023-05-20T11:38:04.074Z,5.90
2023-05-20T11:40:38.911Z,6.00
2023-05-20T11:43:11.462Z,5.77
2023-05-20T11:45:41.822Z,4.90
2023-05-20T11:48:09.574Z,5.40
2023-05-20T11:50:37.469Z,5.37
2023-05-20T11:53:06.282Z,6.23
2023-05-20T11:55:33.458Z,6.10
2023-05-20T11:58:01.020Z,5.30
2023-05-20T12:00:36.355Z,5.47
2023-05-20T12:03:10.436Z,5.10
2023-05-20T12:05:37.680Z,4.53
2023-05-20T12:08:06.335Z,4.47
2023-05-20T12:10:33.554Z,5.37
2023-05-20T12:13:00.913Z,4.77
2023-05-20T12:15:28.057Z,5.25
2023-05-20T12:17:55.337Z,5.40
2023-05-20T12:20:24.592Z,4.55
2023-05-20T12:22:52.114Z,3.88
2023-05-20T12:25:21.063Z,5.25
2023-05-20T12:27:49.137Z,4.57
2023-05-20T12:30:18.224Z,4.65
2023-05-20T12:32:45.718Z,4.85
2023-05-20T12:35:13.290Z,4.60
2023-05-20T12:37:41.105Z,4.35
2023-05-20T12:40:09.209Z,4.90
2023-05-20T12:42:37.656Z,4.65
2023-05-20T12:45:05.382Z,3.88
2023-05-20T12:47:32.797Z,3.72
2023-05-20T12:49:59.959Z,5.22
2023-05-20T12:52:27.172Z,4.18
2023-05-20T12:54:54.385Z,4.78
2023-05-20T12:57:21.586Z,4.80
2023-05-20T12:59:50.056Z,4.80
2023-05-20T13:02:17.320Z,4.27
2023-05-20T13:04:44.451Z,4.20
2023-05-20T13:07:11.608Z,4.57
2023-05-20T13:09:38.669Z,4.20
2023-05-20T13:12:06.016Z,4.65
2023-05-20T13:14:33.133Z,4.60
2023-05-20T13:17:01.565Z,4.25
2023-05-20T13:19:28.759Z,4.10
2023-05-20T13:21:56.006Z,3.90
2023-05-20T13:24:23.082Z,4.28
2023-05-20T13:26:50.197Z,4.22
2023-05-20T13:29:17.319Z,3.83
2023-05-20T13:31:44.434Z,4.60
2023-05-20T13:34:12.940Z,4.10
2023-05-20T13:36:40.149Z,3.63
2023-05-20T13:39:07.302Z,3.97
2023-05-20T13:41:34.370Z,4.40
2023-05-20T13:44:01.450Z,4.10
2023-05-20T13:46:28.608Z,3.85
2023-05-20T13:48:55.755Z,3.97
2023-05-20T13:51:24.150Z,3.33
2023-05-20T13:53:51.205Z,3.47
2023-05-20T13:56:18.607Z,3.95
2023-05-20T13:58:45.824Z,3.40
2023-05-20T14:01:14.464Z,3.78
2023-05-20T14:03:41.780Z,3.65
2023-05-20T14:06:09.591Z,3.70
2023-05-20T14:08:38.009Z,3.30
2023-05-20T14:11:05.192Z,3.60
2023-05-20T14:13:32.226Z,3.50
2023-05-20T14:15:59.323Z,3.95
2023-05-20T14:18:26.437Z,3.67
2023-05-20T14:20:53.557Z,4.00
2023-05-20T14:23:20.695Z,3.42
2023-05-20T14:25:49.206Z,3.78
2023-05-20T14:28:16.307Z,3.40
2023-05-20T14:30:43.416Z,3.67
2023-05-20T14:33:10.554Z,3.53
2023-05-20T14:35:37.710Z,4.03
2023-05-20T14:38:04.887Z,4.05
2023-05-20T14:40:32.025Z,4.22
2023-05-20T14:43:00.446Z,3.47
2023-05-20T14:45:27.524Z,3.87
2023-05-20T14:47:54.690Z,4.30
2023-05-20T14:50:21.881Z,3.33
2023-05-20T14:52:49.992Z,3.67
2023-05-20T14:55:17.156Z,3.53
2023-05-20T14:57:44.261Z,3.73
2023-05-20T15:00:13.603Z,3.20
2023-05-20T15:02:40.825Z,2.38
2023-05-20T15:05:08.270Z,3.75
2023-05-20T15:07:35.368Z,3.85
2023-05-20T15:10:02.509Z,3.92
2023-05-20T15:12:29.628Z,3.13
2023-05-20T15:14:56.707Z,3.40
2023-05-20T15:17:25.208Z,3.65
2023-05-20T15:19:52.342Z,3.45
2023-05-20T15:22:19.424Z,3.65
2023-05-20T15:24:46.504Z,3.78
2023-05-20T15:27:13.609Z,3.20
2023-05-20T15:29:41.036Z,3.60
2023-05-20T15:32:08.225Z,3.70
2023-05-20T15:34:36.777Z,3.75
2023-05-20T15:37:03.951Z,3.60
2023-05-20T15:39:31.012Z,4.13
2023-05-20T15:41:58.194Z,3.50
2023-05-20T15:44:25.277Z,3.67
2023-05-20T15:46:52.540Z,3.87
2023-05-20T15:49:19.621Z,4.00
2023-05-20T15:51:55.745Z,3.70
2023-05-20T15:54:29.820Z,3.27
2023-05-20T15:56:56.971Z,3.87
2023-05-20T15:59:24.056Z,3.87
2023-05-20T16:01:51.205Z,4.27
2023-05-20T16:04:18.384Z,3.73
2023-05-20T16:06:45.552Z,3.60
2023-05-20T16:09:14.035Z,3.83
2023-05-20T16:11:41.192Z,3.50
2023-05-20T16:14:08.301Z,4.03
2023-05-20T16:16:36.316Z,4.60
2023-05-20T16:19:03.609Z,4.27
2023-05-20T16:21:30.713Z,4.03
2023-05-20T16:23:57.859Z,4.30
2023-05-20T16:26:26.423Z,4.30
2023-05-20T16:28:53.576Z,3.60
2023-05-20T16:31:20.700Z,3.83
2023-05-20T16:33:47.791Z,4.57
2023-05-20T16:36:14.940Z,4.27
2023-05-20T16:38:42.030Z,4.10
2023-05-20T16:41:09.103Z,4.57
2023-05-20T16:43:37.518Z,5.10
2023-05-20T16:46:04.731Z,4.10
2023-05-20T16:48:31.833Z,4.63
2023-05-20T16:50:58.918Z,5.60
2023-05-20T16:53:25.976Z,4.07
2023-05-20T16:55:53.034Z,4.33
2023-05-20T16:58:20.139Z,4.23
2023-05-20T17:00:48.580Z,4.00
2023-05-20T17:03:15.704Z,4.40
2023-05-20T17:05:42.782Z,4.37
2023-05-20T17:08:09.874Z,4.17
2023-05-20T17:10:36.936Z,4.70
2023-05-20T17:13:04.045Z,4.20
2023-05-20T17:15:31.117Z,4.00
2023-05-20T17:17:59.665Z,4.70
2023-05-20T17:20:26.825Z,4.37
2023-05-20T17:22:53.933Z,4.80
2023-05-20T17:25:21.146Z,4.10
2023-05-20T17:27:48.337Z,5.60
2023-05-20T17:30:15.502Z,5.97
2023-05-20T17:32:42.637Z,5.10
2023-05-20T17:35:11.254Z,4.70
2023-05-20T17:37:38.351Z,4.23
2023-05-20T17:40:05.958Z,4.40
2023-05-20T17:42:33.100Z,4.70
2023-05-20T17:45:00.287Z,5.57
2023-05-20T17:47:27.376Z,4.53
2023-05-20T17:49:54.473Z,5.50
2023-05-20T17:52:22.931Z,5.30
2023-05-20T17:54:50.050Z,4.23
2023-05-20T17:57:17.128Z,6.40
2023-05-20T17:59:44.258Z,6.13
2023-05-20T18:02:11.390Z,4.50
2023-05-20T18:04:38.443Z,5.60
2023-05-20T18:07:05.846Z,4.90
2023-05-20T18:09:34.456Z,4.87
2023-05-20T18:12:01.551Z,4.77
2023-05-20T18:14:28.580Z,4.67
2023-05-20T18:16:55.744Z,4.10
2023-05-20T18:19:22.907Z,4.60
2023-05-20T18:21:50.202Z,4.33
2023-05-20T18:24:17.311Z,6.43
2023-05-20T18:26:45.925Z,4.13
2023-05-20T18:29:13.019Z,4.20
2023-05-20T18:31:41.970Z,4.70
2023-05-20T18:34:10.368Z,4.40
2023-05-20T18:36:37.470Z,5.70
2023-05-20T18:39:04.548Z,4.97
2023-05-20T18:41:39.419Z,4.77
2023-05-20T18:44:15.320Z,4.20
2023-05-20T18:46:42.421Z,5.37
2023-05-20T18:49:09.757Z,5.77
2023-05-20T18:51:36.822Z,4.77
2023-05-20T18:54:03.915Z,4.43
2023-05-20T18:56:31.023Z,4.67
2023-05-20T18:58:58.171Z,4.97
2023-05-20T19:01:26.664Z,4.83
2023-05-20T19:03:53.752Z,5.30
2023-05-20T19:06:20.855Z,5.80
2023-05-20T19:08:48.031Z,5.80
2023-05-20T19:11:15.077Z,5.43
2023-05-20T19:13:42.134Z,5.50
2023-05-20T19:16:09.274Z,6.00
2023-05-20T19:18:37.769Z,5.53
2023-05-20T19:21:04.884Z,5.77
2023-05-20T19:23:32.007Z,5.77
2023-05-20T19:25:59.259Z,5.47
2023-05-20T19:28:26.316Z,6.33
2023-05-20T19:30:53.485Z,6.20
2023-05-20T19:33:20.938Z,6.77
2023-05-20T19:35:49.393Z,6.30
2023-05-20T19:38:16.549Z,5.83
2023-05-20T19:40:44.094Z,6.33
2023-05-20T19:43:11.294Z,6.33
2023-05-20T19:45:38.444Z,7.23
2023-05-20T19:48:06.015Z,6.63
2023-05-20T19:50:33.325Z,8.00
2023-05-20T19:53:01.756Z,6.87
2023-05-20T19:55:28.878Z,7.93
2023-05-20T19:57:55.967Z,7.90
2023-05-20T20:00:23.037Z,8.00
2023-05-20T20:02:50.186Z,6.43
2023-05-20T20:05:17.440Z,7.43
2023-05-20T20:07:44.604Z,8.73
2023-05-20T20:10:13.098Z,7.60
2023-05-20T20:12:40.298Z,8.00
2023-05-20T20:15:08.178Z,8.00
2023-05-20T20:17:35.370Z,8.43
2023-05-20T20:20:02.452Z,9.83
2023-05-20T20:22:29.571Z,8.33
2023-05-20T20:24:56.695Z,7.03
2023-05-20T20:27:25.247Z,8.40
2023-05-20T20:29:52.390Z,8.10
2023-05-20T20:32:19.549Z,7.83
2023-05-20T20:34:46.766Z,8.07
2023-05-20T20:37:14.778Z,8.67
2023-05-20T20:39:42.156Z,8.87
2023-05-20T20:42:09.277Z,8.77
2023-05-20T20:44:37.761Z,8.57
2023-05-20T20:47:05.269Z,8.60
2023-05-20T20:49:32.462Z,8.47
2023-05-20T20:51:59.629Z,8.83
2023-05-20T20:54:26.774Z,8.53
2023-05-20T20:56:53.922Z,8.57
2023-05-20T20:59:20.987Z,9.07
2023-05-20T21:01:49.478Z,9.87
2023-05-20T21:04:16.652Z,9.40
2023-05-20T21:06:43.790Z,9.23
2023-05-20T21:09:10.906Z,8.50
2023-05-20T21:11:38.055Z,8.40
2023-05-20T21:14:05.132Z,9.27
2023-05-20T21:16:32.282Z,9.57
2023-05-20T21:19:00.888Z,7.80
2023-05-20T21:21:28.238Z,9.50
2023-05-20T21:23:55.358Z,8.93
2023-05-20T21:26:22.508Z,9.73
2023-05-20T21:28:49.650Z,9.67
2023-05-20T21:31:16.850Z,9.53
2023-05-20T21:33:43.978Z,9.37
2023-05-20T21:36:12.542Z,9.33
2023-05-20T21:38:39.647Z,9.27
2023-05-20T21:41:06.828Z,10.87
2023-05-20T21:43:34.014Z,10.53
2023-05-20T21:46:01.186Z,9.73
2023-05-20T21:48:28.360Z,10.00
2023-05-20T21:50:55.436Z,9.70
2023-05-20T21:53:23.921Z,9.90
2023-05-20T21:55:51.291Z,10.47
2023-05-20T21:58:18.426Z,10.50
2023-05-20T22:00:45.582Z,11.27
2023-05-20T22:03:12.853Z,9.63
2023-05-20T22:05:40.070Z,10.17
2023-05-20T22:08:07.174Z,10.10
2023-05-20T22:10:35.593Z,10.63
2023-05-20T22:13:02.741Z,9.90
2023-05-20T22:15:29.944Z,10.43
2023-05-20T22:17:57.090Z,9.80
2023-05-20T22:20:24.248Z,10.70
2023-05-20T22:22:51.383Z,9.67
2023-05-20T22:25:18.595Z,10.63
2023-05-20T22:27:47.060Z,10.67
2023-05-20T22:30:14.147Z,11.10
2023-05-20T22:32:41.272Z,11.83
2023-05-20T22:35:08.968Z,10.50
2023-05-20T22:37:36.105Z,10.90
2023-05-20T22:40:03.189Z,11.20
2023-05-20T22:42:30.290Z,11.03
2023-05-20T22:44:58.762Z,11.23
2023-05-20T22:47:25.847Z,10.73
2023-05-20T22:49:52.914Z,11.50
2023-05-20T22:52:20.004Z,10.53
2023-05-20T22:54:47.113Z,11.37
2023-05-20T22:57:14.191Z,11.67
2023-05-20T22:59:41.363Z,13.00
2023-05-20T23:02:09.816Z,10.07
2023-05-20T23:04:36.908Z,9.80
2023-05-20T23:07:04.169Z,10.07
2023-05-20T23:09:31.370Z,9.63
2023-05-20T23:11:58.487Z,11.33
2023-05-20T23:14:25.616Z,10.73
2023-05-20T23:16:52.743Z,10.70
2023-05-20T23:19:21.281Z,14.17
2023-05-20T23:21:48.367Z,10.03
2023-05-20T23:24:15.518Z,10.57
2023-05-20T23:26:42.642Z,10.40
2023-05-20T23:29:09.794Z,10.40
2023-05-20T23:31:37.015Z,10.70
2023-05-20T23:34:04.245Z,10.60
2023-05-20T23:36:32.707Z,11.07
2023-05-20T23:38:59.820Z,9.80
2023-05-20T23:41:26.931Z,10.17
2023-05-20T23:43:54.002Z,11.17
2023-05-20T23:46:21.096Z,11.43
2023-05-20T23:48:48.205Z,10.90
2023-05-20T23:51:15.364Z,10.60
2023-05-20T23:53:43.914Z,9.50
2023-05-20T23:56:11.031Z,9.70
2023-05-20T23:58:38.263Z,9.70
